Coeur d'Alene, Idaho
Current Conditions -  °F | °C
As of 11:55 AM on Monday 22 Dec 2014 (Local Time) from KCOE Reporting Station
Few Clouds Few Clouds  
Wind Chill: 36°   Ceiling: Unl
Heat Index: 43°   Visibility: 10mi
Dew Point: 30°   Wind: 13mph
Humidity: 61%   Direction: 240°WSW
Pressure: 30.15"   Gusts: NA
Location:  47.68°N, 116.79°W
Report Text: KCOE 221955Z AUTO 24011KT 10SM FEW027 FEW034 06/M01 A3015 RMK AO1
Loading
Personal Weather Stations






























Interactive Weather Map New forecast layout! Learn more

10-Day Weather Forecast

Advertisements
Track Severe Weather on mobile